createdAt,value
2023-04-28T00:02:27.079Z,3.65
2023-04-28T00:04:54.654Z,3.92
2023-04-28T00:07:21.501Z,3.72
2023-04-28T00:09:48.277Z,3.95
2023-04-28T00:12:15.023Z,3.80
2023-04-28T00:14:41.810Z,4.00
2023-04-28T00:17:10.345Z,4.40
2023-04-28T00:22:06.217Z,3.58
2023-04-28T00:24:33.830Z,3.40
2023-04-28T00:27:01.592Z,4.10
2023-04-28T00:29:29.055Z,3.35
2023-04-28T00:31:56.089Z,3.55
2023-04-28T00:34:22.881Z,3.90
2023-04-28T00:36:49.610Z,3.80
2023-04-28T00:39:18.509Z,3.88
2023-04-28T00:41:45.392Z,3.38
2023-04-28T00:44:12.707Z,3.88
2023-04-28T00:46:39.597Z,3.65
2023-04-28T00:49:06.445Z,3.60
2023-04-28T00:51:33.863Z,3.65
2023-04-28T00:54:01.126Z,3.67
2023-04-28T00:56:31.271Z,3.40
2023-04-28T00:58:58.528Z,3.55
2023-04-28T01:01:25.630Z,3.60
2023-04-28T01:03:53.158Z,3.50
2023-04-28T01:06:21.004Z,3.83
2023-04-28T01:08:53.481Z,3.60
2023-04-28T01:11:20.597Z,3.60
2023-04-28T01:14:00.966Z,3.40
2023-04-28T01:16:32.708Z,3.40
2023-04-28T01:19:00.973Z,4.03
2023-04-28T01:21:32.650Z,4.13
2023-04-28T01:24:06.585Z,3.55
2023-04-28T01:26:33.414Z,3.70
2023-04-28T01:29:01.630Z,3.45
2023-04-28T01:31:30.930Z,3.10
2023-04-28T01:33:58.338Z,3.50
2023-04-28T01:36:28.453Z,3.90
2023-04-28T01:38:55.503Z,3.25
2023-04-28T01:41:22.465Z,3.75
2023-04-28T01:43:49.267Z,3.42
2023-04-28T01:46:16.130Z,3.85
2023-04-28T01:48:42.863Z,3.85
2023-04-28T01:51:09.577Z,3.22
2023-04-28T01:53:38.623Z,3.50
2023-04-28T01:56:05.597Z,3.40
2023-04-28T01:58:32.323Z,3.28
2023-04-28T02:00:59.135Z,3.50
2023-04-28T02:03:27.997Z,3.28
2023-04-28T02:05:55.365Z,3.72
2023-04-28T02:08:22.202Z,3.50
2023-04-28T02:10:48.985Z,3.80
2023-04-28T02:13:17.199Z,4.00
2023-04-28T02:15:44.392Z,3.70
2023-04-28T02:18:11.365Z,3.92
2023-04-28T02:20:40.794Z,3.55
2023-04-28T02:23:08.545Z,3.42
2023-04-28T02:25:35.337Z,3.80
2023-04-28T02:28:02.316Z,3.35
2023-04-28T02:30:29.122Z,3.33
2023-04-28T02:32:56.313Z,3.50
2023-04-28T02:35:23.578Z,3.78
2023-04-28T02:37:50.791Z,3.65
2023-04-28T02:40:18.895Z,3.47
2023-04-28T02:42:46.106Z,4.47
2023-04-28T02:45:12.975Z,3.10
2023-04-28T02:47:39.907Z,3.58
2023-04-28T02:50:07.936Z,4.07
2023-04-28T02:52:34.798Z,3.70
2023-04-28T02:55:03.702Z,3.22
2023-04-28T02:57:30.980Z,3.22
2023-04-28T02:59:57.878Z,3.95
2023-04-28T03:02:27.614Z,3.67
2023-04-28T03:04:54.454Z,3.85
2023-04-28T03:07:21.262Z,3.33
2023-04-28T03:09:48.585Z,3.75
2023-04-28T03:12:15.466Z,3.85
2023-04-28T03:14:42.272Z,3.70
2023-04-28T03:17:09.845Z,3.58
2023-04-28T03:19:37.041Z,4.35
2023-04-28T03:22:03.814Z,4.03
2023-04-28T03:24:31.800Z,3.97
2023-04-28T03:26:59.388Z,3.70
2023-04-28T03:29:26.592Z,3.80
2023-04-28T03:31:53.686Z,3.95
2023-04-28T03:34:20.921Z,3.83
2023-04-28T03:36:47.986Z,3.45
2023-04-28T03:39:23.145Z,3.90
2023-04-28T03:41:49.833Z,3.72
2023-04-28T03:44:34.966Z,3.90
2023-04-28T03:47:01.841Z,4.05
2023-04-28T03:49:28.785Z,3.90
2023-04-28T03:51:55.975Z,3.83
2023-04-28T03:54:22.726Z,3.63
2023-04-28T03:56:49.587Z,3.90
2023-04-28T03:59:16.875Z,3.92
2023-04-28T04:01:43.627Z,3.60
2023-04-28T04:04:11.484Z,3.63
2023-04-28T04:06:38.811Z,3.70
2023-04-28T04:09:06.157Z,3.75
2023-04-28T04:11:33.318Z,3.60
2023-04-28T04:14:00.039Z,4.20
2023-04-28T04:16:27.030Z,3.83
2023-04-28T04:18:56.293Z,3.80
2023-04-28T04:21:28.809Z,4.10
2023-04-28T04:23:55.927Z,3.50
2023-04-28T04:26:23.109Z,3.42
2023-04-28T04:28:51.266Z,3.90
2023-04-28T04:31:19.725Z,3.72
2023-04-28T04:33:47.025Z,4.20
2023-04-28T04:36:14.203Z,3.47
2023-04-28T04:38:41.135Z,3.97
2023-04-28T04:43:43.245Z,4.18
2023-04-28T04:46:10.137Z,4.00
2023-04-28T04:48:37.084Z,4.07
2023-04-28T04:51:04.457Z,3.67
2023-04-28T04:53:31.826Z,3.92
2023-04-28T04:55:58.865Z,3.92
2023-04-28T04:58:26.659Z,4.07
2023-04-28T05:01:10.229Z,4.15
2023-04-28T05:03:37.464Z,3.75
2023-04-28T05:06:04.381Z,4.05
2023-04-28T05:08:43.814Z,4.18
2023-04-28T05:11:10.988Z,3.83
2023-04-28T05:13:40.517Z,4.43
2023-04-28T05:16:07.528Z,4.20
2023-04-28T05:18:34.443Z,4.03
2023-04-28T05:21:01.650Z,4.15
2023-04-28T05:23:28.534Z,4.30
2023-04-28T05:25:55.356Z,4.32
2023-04-28T05:28:22.428Z,4.57
2023-04-28T05:30:52.600Z,3.95
2023-04-28T05:33:19.900Z,4.55
2023-04-28T05:35:47.790Z,4.22
2023-04-28T05:38:14.866Z,5.07
2023-04-28T05:40:43.466Z,4.20
2023-04-28T05:43:11.771Z,4.00
2023-04-28T05:45:38.750Z,4.20
2023-04-28T05:48:06.236Z,4.30
2023-04-28T05:50:33.518Z,4.13
2023-04-28T05:53:01.624Z,4.30
2023-04-28T05:55:30.622Z,4.43
2023-04-28T05:57:58.710Z,4.53
2023-04-28T06:00:26.022Z,4.50
2023-04-28T06:02:55.348Z,4.70
2023-04-28T06:05:23.152Z,4.47
2023-04-28T06:07:54.425Z,4.90
2023-04-28T06:10:26.199Z,4.28
2023-04-28T06:12:52.962Z,4.70
2023-04-28T06:15:19.747Z,4.80
2023-04-28T06:17:47.651Z,5.15
2023-04-28T06:20:16.512Z,5.47
2023-04-28T06:22:43.809Z,5.25
2023-04-28T06:25:10.570Z,4.97
2023-04-28T06:27:46.401Z,5.28
2023-04-28T06:30:21.322Z,5.30
2023-04-28T06:32:48.114Z,4.90
2023-04-28T06:35:16.322Z,5.25
2023-04-28T06:37:43.480Z,5.10
2023-04-28T06:40:11.116Z,5.40
2023-04-28T06:42:41.388Z,5.22
2023-04-28T06:45:11.956Z,5.20
2023-04-28T06:47:40.600Z,5.30
2023-04-28T06:50:09.598Z,5.53
2023-04-28T06:52:39.530Z,5.43
2023-04-28T06:55:10.481Z,6.13
2023-04-28T06:57:38.130Z,6.10
2023-04-28T07:00:05.990Z,5.72
2023-04-28T07:02:32.987Z,6.22
2023-04-28T07:04:59.863Z,6.20
2023-04-28T07:07:26.613Z,6.32
2023-04-28T07:09:53.561Z,7.00
2023-04-28T07:12:21.730Z,6.30
2023-04-28T07:14:48.744Z,4.30
2023-04-28T07:17:15.538Z,4.38
2023-04-28T07:19:42.401Z,5.45
2023-04-28T07:22:09.151Z,5.22
2023-04-28T07:24:36.133Z,4.80
2023-04-28T07:27:03.733Z,5.35
2023-04-28T07:29:34.057Z,5.40
2023-04-28T07:32:01.919Z,5.10
2023-04-28T07:34:28.891Z,6.30
2023-04-28T07:36:56.041Z,6.10
2023-04-28T07:39:22.757Z,5.65
2023-04-28T07:41:49.566Z,5.65
2023-04-28T07:44:16.615Z,6.30
2023-04-28T07:46:43.499Z,5.68
2023-04-28T07:49:10.308Z,6.45
2023-04-28T07:51:37.156Z,6.32
2023-04-28T07:54:04.015Z,6.20
2023-04-28T07:56:31.011Z,6.72
2023-04-28T07:58:57.946Z,6.15
2023-04-28T08:01:24.689Z,6.55
2023-04-28T08:03:51.787Z,6.80
2023-04-28T08:06:19.261Z,6.47
2023-04-28T08:08:46.079Z,6.15
2023-04-28T08:11:12.793Z,6.60
2023-04-28T08:13:39.530Z,6.80
2023-04-28T08:16:06.816Z,6.68
2023-04-28T08:18:33.876Z,6.70
2023-04-28T08:21:00.673Z,6.75
2023-04-28T08:23:30.620Z,6.45
2023-04-28T08:25:57.616Z,6.53
2023-04-28T08:28:24.393Z,6.65
2023-04-28T08:30:51.218Z,6.65
2023-04-28T08:33:18.201Z,6.57
2023-04-28T08:35:46.180Z,7.10
2023-04-28T08:38:15.629Z,6.88
2023-04-28T08:40:42.920Z,7.03
2023-04-28T08:43:13.917Z,6.65
2023-04-28T08:45:45.563Z,7.82
2023-04-28T08:48:22.802Z,6.75
2023-04-28T08:50:54.703Z,7.63
2023-04-28T08:53:26.425Z,7.32
2023-04-28T08:55:59.429Z,7.35
2023-04-28T08:58:27.508Z,6.93
2023-04-28T09:00:54.619Z,7.30
2023-04-28T09:03:21.957Z,8.10
2023-04-28T09:05:49.147Z,7.68
2023-04-28T09:08:16.019Z,7.97
2023-04-28T09:10:42.917Z,7.88
2023-04-28T09:13:09.742Z,8.48
2023-04-28T09:15:41.014Z,8.00
2023-04-28T09:18:08.521Z,7.43
2023-04-28T09:20:37.028Z,7.72
2023-04-28T09:23:14.693Z,9.07
2023-04-28T09:25:41.484Z,8.13
2023-04-28T09:28:23.321Z,7.05
2023-04-28T09:30:50.105Z,8.10
2023-04-28T09:33:16.960Z,8.18
2023-04-28T09:35:45.801Z,8.23
2023-04-28T09:38:12.874Z,8.25
2023-04-28T09:41:01.780Z,7.82
2023-04-28T09:43:28.774Z,8.88
2023-04-28T09:46:28.295Z,8.15
2023-04-28T09:49:01.503Z,8.85
2023-04-28T09:51:28.384Z,7.53
2023-04-28T09:53:59.610Z,8.05
2023-04-28T09:56:30.039Z,8.50
2023-04-28T09:59:01.443Z,7.60
2023-04-28T10:01:33.385Z,8.10
2023-04-28T10:04:03.054Z,8.75
2023-04-28T10:06:30.546Z,7.75
2023-04-28T10:08:58.898Z,7.70
2023-04-28T10:13:54.175Z,7.85
2023-04-28T10:16:22.449Z,7.40
2023-04-28T10:18:50.216Z,7.50
2023-04-28T10:21:21.395Z,7.38
2023-04-28T10:24:14.160Z,7.60
2023-04-28T10:27:09.700Z,6.53
2023-04-28T10:29:37.529Z,6.70
2023-04-28T10:32:19.327Z,6.50
2023-04-28T10:34:46.133Z,6.53
2023-04-28T10:37:15.062Z,6.53
2023-04-28T10:40:18.959Z,6.53
2023-04-28T10:42:53.460Z,5.75
2023-04-28T10:45:56.379Z,5.60
2023-04-28T10:48:46.886Z,5.80
2023-04-28T10:51:16.676Z,5.72
2023-04-28T10:53:44.015Z,5.82
2023-04-28T10:56:27.426Z,6.32
2023-04-28T10:59:00.485Z,6.28
2023-04-28T11:01:32.540Z,6.57
2023-04-28T11:04:13.073Z,6.80
2023-04-28T11:06:45.819Z,6.25
2023-04-28T11:09:12.513Z,6.53
2023-04-28T11:11:59.540Z,6.53
2023-04-28T11:16:55.469Z,6.25
2023-04-28T11:19:29.925Z,6.47
2023-04-28T11:21:58.902Z,6.28
2023-04-28T11:24:28.858Z,5.93
2023-04-28T11:26:56.181Z,5.93
2023-04-28T11:29:40.214Z,6.13
2023-04-28T11:32:08.983Z,5.80
2023-04-28T11:34:36.738Z,6.03
2023-04-28T11:37:05.708Z,5.90
2023-04-28T11:39:33.786Z,5.95
2023-04-28T11:42:02.754Z,5.45
2023-04-28T11:44:31.241Z,6.25
2023-04-28T11:49:42.205Z,6.57
2023-04-28T11:52:10.246Z,6.43
2023-04-28T11:54:37.160Z,6.15
2023-04-28T11:57:05.204Z,5.93
2023-04-28T11:59:36.045Z,5.75
2023-04-28T12:02:07.538Z,6.25
2023-04-28T12:04:41.358Z,5.60
2023-04-28T12:07:10.257Z,5.75
2023-04-28T12:09:39.046Z,5.70
2023-04-28T12:12:07.763Z,5.57
2023-04-28T12:14:59.381Z,4.75
2023-04-28T12:17:30.166Z,4.88
2023-04-28T12:19:58.450Z,4.50
2023-04-28T12:22:26.222Z,4.30
2023-04-28T12:25:12.629Z,4.00
2023-04-28T12:27:41.175Z,4.00
2023-04-28T12:32:48.387Z,3.60
2023-04-28T12:35:16.110Z,3.40
2023-04-28T12:37:43.942Z,3.22
2023-04-28T12:40:11.501Z,2.83
2023-04-28T12:42:38.394Z,3.20
2023-04-28T12:45:06.740Z,2.40
2023-04-28T12:47:33.683Z,2.25
2023-04-28T12:50:00.421Z,2.88
2023-04-28T12:52:27.187Z,2.45
2023-04-28T12:54:53.899Z,2.60
2023-04-28T12:57:20.801Z,2.83
2023-04-28T12:59:52.559Z,3.10
2023-04-28T13:02:19.842Z,2.85
2023-04-28T13:04:46.971Z,3.85
2023-04-28T13:07:17.006Z,3.78
2023-04-28T13:09:44.260Z,3.83
2023-04-28T13:12:14.665Z,4.20
2023-04-28T13:14:41.857Z,3.92
2023-04-28T13:17:10.069Z,3.63
2023-04-28T13:19:37.004Z,3.95
2023-04-28T13:22:05.850Z,4.03
2023-04-28T13:24:35.885Z,3.65
2023-04-28T13:27:04.107Z,3.70
2023-04-28T13:29:30.914Z,3.30
2023-04-28T13:31:57.696Z,3.35
2023-04-28T13:34:24.507Z,3.20
2023-04-28T13:36:53.967Z,3.50
2023-04-28T13:39:22.043Z,2.97
2023-04-28T13:41:49.465Z,2.80
2023-04-28T13:44:16.537Z,2.72
2023-04-28T13:46:43.493Z,2.50
2023-04-28T13:49:10.671Z,2.60
2023-04-28T13:51:37.734Z,2.50
2023-04-28T13:54:05.439Z,2.90
2023-04-28T13:56:32.291Z,2.22
2023-04-28T13:58:59.084Z,2.03
2023-04-28T14:01:26.286Z,2.20
2023-04-28T14:03:53.550Z,1.75
2023-04-28T14:06:20.850Z,1.98
2023-04-28T14:08:47.954Z,1.88
2023-04-28T14:11:14.840Z,1.90
2023-04-28T14:13:41.717Z,1.65
2023-04-28T14:16:08.980Z,2.00
2023-04-28T14:18:35.836Z,1.80
2023-04-28T14:21:03.268Z,1.88
2023-04-28T14:23:30.110Z,1.88
2023-04-28T14:25:58.080Z,1.55
2023-04-28T14:28:24.882Z,1.70
2023-04-28T14:30:54.294Z,1.73
2023-04-28T14:33:21.141Z,2.10
2023-04-28T14:35:48.070Z,2.10
2023-04-28T14:38:14.833Z,2.80
2023-04-28T14:40:42.991Z,2.85
2023-04-28T14:43:09.851Z,2.78
2023-04-28T14:45:38.179Z,3.40
2023-04-28T14:48:07.060Z,3.60
2023-04-28T14:50:34.428Z,4.28
2023-04-28T14:53:05.590Z,4.88
2023-04-28T14:55:33.414Z,4.60
2023-04-28T14:58:00.264Z,4.45
2023-04-28T15:00:27.045Z,4.82
2023-04-28T15:02:54.213Z,5.35
2023-04-28T15:05:21.106Z,5.35
2023-04-28T15:07:47.983Z,5.53
2023-04-28T15:10:15.249Z,5.40
2023-04-28T15:12:42.580Z,5.40
2023-04-28T15:15:09.871Z,4.68
2023-04-28T15:17:36.845Z,5.35
2023-04-28T15:20:05.099Z,5.63
2023-04-28T15:22:31.885Z,5.60
2023-04-28T15:24:58.692Z,5.03
2023-04-28T15:27:25.552Z,5.97
2023-04-28T15:29:52.337Z,5.70
2023-04-28T15:32:19.132Z,5.50
2023-04-28T15:34:46.179Z,5.68
2023-04-28T15:37:38.000Z,5.75
2023-04-28T15:40:10.486Z,6.43
2023-04-28T15:42:38.222Z,5.55
2023-04-28T15:45:06.000Z,6.28
2023-04-28T15:47:32.998Z,6.72
2023-04-28T15:49:59.998Z,5.75
2023-04-28T15:52:27.416Z,6.60
2023-04-28T15:54:55.858Z,6.20
2023-04-28T15:59:51.573Z,6.30
2023-04-28T16:02:18.877Z,6.38
2023-04-28T16:04:46.797Z,6.90
2023-04-28T16:07:13.944Z,7.07
2023-04-28T16:09:40.784Z,7.15
2023-04-28T16:12:07.721Z,7.13
2023-04-28T16:14:34.961Z,6.78
2023-04-28T16:17:01.768Z,7.47
2023-04-28T16:19:28.929Z,6.63
2023-04-28T16:21:55.674Z,7.00
2023-04-28T16:24:22.572Z,7.18
2023-04-28T16:26:50.236Z,6.60
2023-04-28T16:29:17.088Z,6.93
2023-04-28T16:31:45.589Z,7.00
2023-04-28T16:34:12.689Z,7.00
2023-04-28T16:36:40.144Z,7.28
2023-04-28T16:39:07.233Z,6.95
2023-04-28T16:41:34.116Z,6.55
2023-04-28T16:44:00.893Z,6.53
2023-04-28T16:46:27.690Z,7.07
2023-04-28T16:48:54.504Z,6.65
2023-04-28T16:51:22.177Z,6.25
2023-04-28T16:53:48.969Z,6.10
2023-04-28T16:56:15.934Z,7.10
2023-04-28T16:58:42.787Z,6.07
2023-04-28T17:01:09.716Z,6.40
2023-04-28T17:03:41.637Z,6.38
2023-04-28T17:06:09.036Z,6.47
2023-04-28T17:08:35.917Z,6.00
2023-04-28T17:11:04.478Z,4.75
2023-04-28T17:13:35.221Z,4.75
2023-04-28T17:16:02.331Z,4.30
2023-04-28T17:18:29.118Z,3.90
2023-04-28T17:20:56.628Z,2.85
2023-04-28T17:23:23.384Z,2.85
2023-04-28T17:25:50.422Z,3.10
2023-04-28T17:28:17.222Z,2.97
2023-04-28T17:30:47.164Z,2.92
2023-04-28T17:33:15.151Z,2.63
2023-04-28T17:35:41.944Z,2.63
2023-04-28T17:38:08.930Z,2.75
2023-04-28T17:40:36.138Z,3.20
2023-04-28T17:43:04.033Z,3.00
2023-04-28T17:45:30.944Z,3.20
2023-04-28T17:48:00.555Z,3.25
2023-04-28T17:50:27.840Z,3.35
2023-04-28T17:52:55.015Z,3.75
2023-04-28T17:55:22.302Z,3.90
2023-04-28T17:57:49.144Z,4.22
2023-04-28T18:00:16.121Z,3.85
2023-04-28T18:02:42.937Z,3.63
2023-04-28T18:05:09.997Z,4.18
2023-04-28T18:07:37.495Z,4.22
2023-04-28T18:10:04.381Z,5.20
2023-04-28T18:12:31.223Z,5.20
2023-04-28T18:14:57.975Z,5.60
2023-04-28T18:17:26.151Z,5.90
2023-04-28T18:19:56.594Z,5.70
2023-04-28T18:22:23.446Z,5.75
2023-04-28T18:24:50.554Z,6.57
2023-04-28T18:27:17.533Z,5.55
2023-04-28T18:29:44.963Z,5.72
2023-04-28T18:32:14.534Z,6.10
2023-04-28T18:34:42.022Z,6.07
2023-04-28T18:37:09.436Z,6.22
2023-04-28T18:39:36.654Z,6.00
2023-04-28T18:42:04.281Z,6.38
2023-04-28T18:44:31.224Z,6.35
2023-04-28T18:46:58.577Z,7.40
2023-04-28T18:49:25.803Z,7.40
2023-04-28T18:51:52.712Z,8.20
2023-04-28T18:54:19.831Z,7.72
2023-04-28T18:56:47.987Z,7.88
2023-04-28T18:59:14.800Z,7.72
2023-04-28T19:01:41.880Z,8.15
2023-04-28T19:04:09.250Z,8.23
2023-04-28T19:06:36.322Z,8.52
2023-04-28T19:09:03.394Z,8.35
2023-04-28T19:11:30.518Z,8.57
2023-04-28T19:13:58.182Z,8.93
2023-04-28T19:16:25.296Z,8.52
2023-04-28T19:18:52.154Z,8.77
2023-04-28T19:21:18.979Z,9.18
2023-04-28T19:23:46.202Z,10.45
2023-04-28T19:26:13.382Z,8.63
2023-04-28T19:28:40.376Z,9.82
2023-04-28T19:31:08.883Z,10.65
2023-04-28T19:33:35.815Z,10.57
2023-04-28T19:36:03.114Z,10.73
2023-04-28T19:38:29.825Z,10.93
2023-04-28T19:41:03.601Z,10.88
2023-04-28T19:43:38.756Z,11.27
2023-04-28T19:46:08.926Z,11.48
2023-04-28T19:48:40.909Z,12.80
2023-04-28T19:51:14.999Z,12.88
2023-04-28T19:53:42.667Z,13.80
2023-04-28T19:56:10.142Z,13.52
2023-04-28T19:58:37.678Z,12.05
2023-04-28T20:01:07.075Z,13.18
2023-04-28T20:03:34.997Z,13.40
2023-04-28T20:06:01.868Z,13.55
2023-04-28T20:08:29.427Z,15.30
2023-04-28T20:10:56.631Z,15.02
2023-04-28T20:13:23.383Z,16.08
2023-04-28T20:15:50.219Z,16.75
2023-04-28T20:18:17.042Z,16.95
2023-04-28T20:20:43.749Z,16.67
2023-04-28T20:23:10.564Z,15.05
2023-04-28T20:25:37.461Z,16.85
2023-04-28T20:28:04.327Z,17.40
2023-04-28T20:30:31.059Z,17.38
2023-04-28T20:32:57.896Z,17.92
2023-04-28T20:35:24.800Z,16.63
2023-04-28T20:37:52.743Z,17.08
2023-04-28T20:40:19.491Z,17.23
2023-04-28T20:42:46.247Z,18.23
2023-04-28T20:45:13.069Z,17.85
2023-04-28T20:47:40.438Z,17.45
2023-04-28T20:50:10.856Z,17.70
2023-04-28T20:52:38.393Z,18.50
2023-04-28T20:55:05.636Z,18.38
2023-04-28T20:57:32.361Z,19.52
2023-04-28T20:59:59.075Z,19.38
2023-04-28T21:02:26.017Z,19.88
2023-04-28T21:04:53.943Z,19.38
2023-04-28T21:07:20.852Z,20.85
2023-04-28T21:09:47.603Z,19.63
2023-04-28T21:12:14.610Z,17.73
2023-04-28T21:14:41.444Z,17.30
2023-04-28T21:17:08.816Z,17.58
2023-04-28T21:19:36.021Z,16.90
2023-04-28T21:22:04.199Z,16.40
2023-04-28T21:24:31.067Z,16.40
2023-04-28T21:26:59.539Z,16.52
2023-04-28T21:29:27.514Z,14.93
2023-04-28T21:31:54.429Z,16.00
2023-04-28T21:34:21.258Z,15.30
2023-04-28T21:36:48.446Z,14.43
2023-04-28T21:39:15.197Z,14.13
2023-04-28T21:41:42.364Z,14.05
2023-04-28T21:44:09.134Z,14.15
2023-04-28T21:46:36.156Z,12.25
2023-04-28T21:49:02.942Z,13.05
2023-04-28T21:51:29.738Z,12.95
2023-04-28T21:53:56.451Z,13.80
2023-04-28T21:56:23.178Z,13.27
2023-04-28T21:58:49.882Z,14.23
2023-04-28T22:01:17.696Z,13.45
2023-04-28T22:03:46.433Z,12.07
2023-04-28T22:06:13.669Z,12.70
2023-04-28T22:08:40.416Z,13.00
2023-04-28T22:11:07.352Z,12.40
2023-04-28T22:13:34.082Z,12.82
2023-04-28T22:16:01.941Z,12.30
2023-04-28T22:18:29.364Z,12.60
2023-04-28T22:20:56.436Z,12.05
2023-04-28T22:23:23.334Z,11.25
2023-04-28T22:25:50.147Z,11.20
2023-04-28T22:28:17.239Z,11.15
2023-04-28T22:30:46.646Z,11.15
2023-04-28T22:33:13.458Z,11.32
2023-04-28T22:35:40.590Z,11.15
2023-04-28T22:38:07.941Z,11.32
2023-04-28T22:40:34.700Z,11.05
2023-04-28T22:43:01.585Z,10.57
2023-04-28T22:45:28.793Z,9.95
2023-04-28T22:47:56.329Z,10.90
2023-04-28T22:50:23.422Z,12.07
2023-04-28T22:52:50.493Z,9.98
2023-04-28T22:55:17.353Z,10.48
2023-04-28T22:57:44.066Z,11.48
2023-04-28T23:00:11.664Z,10.95
2023-04-28T23:02:38.497Z,10.63
2023-04-28T23:05:05.737Z,10.10
2023-04-28T23:07:32.442Z,10.80
2023-04-28T23:09:59.259Z,10.77
2023-04-28T23:12:26.674Z,11.10
2023-04-28T23:14:53.839Z,10.70
2023-04-28T23:17:20.583Z,10.43
2023-04-28T23:19:47.324Z,10.13
2023-04-28T23:22:14.047Z,10.10
2023-04-28T23:24:40.861Z,10.38
2023-04-28T23:27:07.860Z,10.45
2023-04-28T23:29:35.899Z,11.00
2023-04-28T23:32:03.723Z,10.57
2023-04-28T23:34:33.492Z,10.70
2023-04-28T23:37:01.057Z,11.18
2023-04-28T23:39:30.086Z,12.90
2023-04-28T23:41:56.952Z,11.77
2023-04-28T23:44:23.717Z,12.07
2023-04-28T23:46:50.460Z,11.60
2023-04-28T23:49:17.229Z,11.93
2023-04-28T23:51:44.025Z,12.05
2023-04-28T23:54:11.654Z,12.18
2023-04-28T23:56:38.541Z,12.43
2023-04-28T23:59:05.445Z,12.05
